Time;durP1;ratioP1;P1;durP2;ratioP2;P2;SDS_P1;SDS_P2;PMS_P1;PMS_P2;Temp;Humidity;BMP_temperature;BMP_pressure;BME280_temperature;BME280_humidity;BME280_pressure;Samples;Min_cycle;Max_cycle;Signal;HPM_P1;HPM_P2
2024/03/10 00:00:30;;;;;;;14.63;9.10;;;;;;;9.77;100.00;101706.28;2090949;28;20438;-69
2024/03/10 00:01:30;;;;;;;13.23;8.40;;;;;;;9.86;100.00;101718.53;2092852;28;20658;-69
2024/03/10 00:02:31;;;;;;;14.10;8.20;;;;;;;9.88;100.00;101716.13;2093095;28;20833;-69
2024/03/10 00:03:31;;;;;;;20.03;9.37;;;;;;;9.90;100.00;101712.97;2096919;28;20289;-69
2024/03/10 00:04:31;;;;;;;14.03;8.53;;;;;;;9.95;100.00;101724.41;2094576;28;20187;-69
2024/03/10 00:05:34;;;;;;;14.77;8.53;;;;;;;9.98;100.00;101714.50;2092232;28;20279;-69
2024/03/10 00:06:34;;;;;;;13.87;8.27;;;;;;;9.53;100.00;101649.81;2095471;28;20194;-69
2024/03/10 00:07:34;;;;;;;13.23;8.17;;;;;;;9.97;100.00;101712.94;2093221;28;20520;-69
2024/03/10 00:08:35;;;;;;;14.13;8.17;;;;;;;9.97;100.00;101707.38;2095504;28;20188;-70
2024/03/10 00:09:36;;;;;;;16.33;8.27;;;;;;;9.98;100.00;101714.50;2093221;28;20266;-69
2024/03/10 00:10:41;;;;;;;13.87;8.60;;;;;;;9.99;100.00;101716.09;2094644;28;20187;-69
2024/03/10 00:11:42;;;;;;;13.00;8.53;;;;;;;9.98;100.00;101707.00;2094294;28;20176;-69
2024/03/10 00:12:47;;;;;;;14.00;8.03;;;;;;;9.94;100.00;101713.75;2091520;28;20805;-69
2024/03/10 00:13:48;;;;;;;12.70;8.17;;;;;;;9.94;100.00;101708.97;2094587;28;20469;-69
2024/03/10 00:14:49;;;;;;;14.40;7.90;;;;;;;9.91;100.00;101709.00;2091966;28;20430;-69
2024/03/10 00:15:49;;;;;;;13.83;7.93;;;;;;;9.88;100.00;101712.56;2091326;28;20431;-69
2024/03/10 00:16:50;;;;;;;12.77;8.07;;;;;;;9.82;100.00;101695.59;2096562;28;20194;-69
2024/03/10 00:17:50;;;;;;;15.93;8.67;;;;;;;9.03;100.00;101582.00;2090793;28;20214;-69
2024/03/10 00:18:52;;;;;;;14.33;8.53;;;;;;;9.39;100.00;101644.31;2094172;28;20184;-70
2024/03/10 00:19:52;;;;;;;12.23;7.20;;;;;;;9.82;100.00;101714.97;2091815;28;20564;-69
2024/03/10 00:20:56;;;;;;;14.70;7.93;;;;;;;9.93;100.00;101712.13;2092456;28;20433;-69
2024/03/10 00:21:56;;;;;;;13.87;8.23;;;;;;;9.89;100.00;101719.69;2094856;28;20537;-69
2024/03/10 00:22:57;;;;;;;13.77;8.00;;;;;;;9.88;100.00;101721.66;2092089;28;20456;-69
2024/03/10 00:24:00;;;;;;;12.67;7.97;;;;;;;9.91;100.00;101718.09;2096886;28;20582;-69
2024/03/10 00:25:00;;;;;;;12.60;7.33;;;;;;;9.85;100.00;101707.84;2093846;28;20462;-69
2024/03/10 00:26:05;;;;;;;12.17;7.50;;;;;;;9.88;100.00;101712.56;2090601;28;20445;-69
2024/03/10 00:27:06;;;;;;;18.47;8.77;;;;;;;9.86;100.00;101712.19;2091136;28;20177;-70
2024/03/10 00:28:08;;;;;;;12.60;7.70;;;;;;;9.85;100.00;101708.59;2095237;28;20436;-69
2024/03/10 00:29:09;;;;;;;14.90;8.13;;;;;;;9.63;100.00;101673.91;2095915;28;20511;-69
2024/03/10 00:30:10;;;;;;;13.50;7.37;;;;;;;9.88;100.00;101707.81;2092852;28;20479;-69
2024/03/10 00:31:10;;;;;;;11.90;7.13;;;;;;;9.86;100.00;101709.41;2095006;28;20184;-69
2024/03/10 00:32:11;;;;;;;12.83;7.90;;;;;;;9.89;100.00;101703.09;2095230;28;21033;-67
2024/03/10 00:33:11;;;;;;;14.80;8.13;;;;;;;9.87;100.00;101700.72;2094719;28;20693;-68
2024/03/10 00:34:12;;;;;;;12.17;7.90;;;;;;;9.85;100.00;101705.06;2092455;28;20194;-67
2024/03/10 00:35:12;;;;;;;10.20;6.83;;;;;;;9.68;100.00;101679.03;2094817;28;20182;-68
2024/03/10 00:36:13;;;;;;;11.77;7.53;;;;;;;9.87;100.00;101702.69;2094641;28;20192;-69
2024/03/10 00:37:14;;;;;;;15.30;7.57;;;;;;;9.90;100.00;101707.44;2095767;28;20190;-69
2024/03/10 00:38:15;;;;;;;12.53;7.73;;;;;;;9.88;100.00;101707.03;2093891;28;20245;-69
2024/03/10 00:39:15;;;;;;;14.40;8.27;;;;;;;9.89;100.00;101701.09;2094254;28;20456;-69
2024/03/10 00:40:16;;;;;;;13.63;7.77;;;;;;;9.86;100.00;101703.88;2091533;28;20795;-69
2024/03/10 00:41:17;;;;;;;11.97;7.40;;;;;;;9.84;100.00;101703.50;2092536;28;20197;-69
2024/03/10 00:42:17;;;;;;;13.67;7.10;;;;;;;9.82;100.00;101703.91;2094254;28;20188;-69
2024/03/10 00:43:18;;;;;;;14.63;8.27;;;;;;;9.79;100.00;101701.16;2093413;28;20277;-69
2024/03/10 00:44:19;;;;;;;14.30;8.03;;;;;;;9.75;100.00;101703.13;2092240;28;20582;-69
2024/03/10 00:45:22;;;;;;;11.60;7.37;;;;;;;9.72;100.00;101706.69;2092999;28;20183;-69
2024/03/10 00:46:23;;;;;;;13.13;8.30;;;;;;;9.68;100.00;101706.69;2092845;28;20423;-69
2024/03/10 00:47:23;;;;;;;12.50;7.57;;;;;;;9.67;100.00;101701.56;2095666;28;20435;-69
2024/03/10 00:48:25;;;;;;;14.83;7.77;;;;;;;9.66;100.00;101700.00;2095032;28;20195;-69
2024/03/10 00:49:25;;;;;;;15.97;8.57;;;;;;;9.68;100.00;101703.94;2091861;28;20188;-69
2024/03/10 00:50:26;;;;;;;13.67;8.03;;;;;;;9.65;100.00;101698.41;2094240;28;20465;-69
2024/03/10 00:51:26;;;;;;;13.27;8.10;;;;;;;9.59;100.00;101689.72;2093403;28;20676;-69
2024/03/10 00:52:27;;;;;;;10.87;7.10;;;;;;;9.57;100.00;101691.31;2092345;28;20271;-69
2024/03/10 00:53:27;;;;;;;14.53;9.13;;;;;;;9.56;100.00;101684.19;2096103;28;20184;-69
2024/03/10 00:54:28;;;;;;;13.53;7.73;;;;;;;9.54;100.00;101689.34;2093715;28;20183;-69
2024/03/10 00:55:29;;;;;;;13.27;7.77;;;;;;;9.53;100.00;101688.56;2093266;28;20333;-69
2024/03/10 00:56:29;;;;;;;14.33;8.23;;;;;;;9.51;100.00;101681.84;2094882;28;20216;-69
2024/03/10 00:57:30;;;;;;;16.83;8.47;;;;;;;9.42;100.00;101662.09;2091697;28;20691;-69
2024/03/10 00:58:32;;;;;;;14.13;8.40;;;;;;;9.52;100.00;101675.91;2091457;28;20682;-69
2024/03/10 00:59:33;;;;;;;14.03;7.83;;;;;;;9.51;100.00;101676.31;2091271;28;20629;-69
2024/03/10 01:00:34;;;;;;;12.80;7.87;;;;;;;9.47;100.00;101670.78;2089030;28;20530;-69
2024/03/10 01:01:34;;;;;;;10.30;6.70;;;;;;;9.47;100.00;101662.50;2089843;28;20187;-69
2024/03/10 01:02:36;;;;;;;14.53;7.80;;;;;;;9.20;100.00;101622.66;2095568;28;20225;-69
2024/03/10 01:03:40;;;;;;;13.27;8.00;;;;;;;8.86;100.00;101590.34;2090020;28;20204;-69
2024/03/10 01:04:41;;;;;;;12.03;6.93;;;;;;;9.42;100.00;101662.91;2095773;28;20438;-69
2024/03/10 01:05:41;;;;;;;13.70;8.23;;;;;;;9.39;100.00;101671.97;2096871;28;20467;-69
2024/03/10 01:06:42;;;;;;;13.90;7.87;;;;;;;9.30;100.00;101660.56;2098041;28;20176;-69
2024/03/10 01:07:43;;;;;;;12.77;7.90;;;;;;;9.18;100.00;101638.84;2096033;28;20189;-69
2024/03/10 01:08:44;;;;;;;13.20;8.07;;;;;;;8.51;100.00;101519.31;2097922;28;20193;-69
2024/03/10 01:09:44;;;;;;;14.23;6.97;;;;;;;9.50;100.00;101669.19;2090923;28;20191;-69
2024/03/10 01:10:46;;;;;;;13.63;8.57;;;;;;;9.54;100.00;101661.69;2093491;28;20441;-69
2024/03/10 01:11:47;;;;;;;16.77;7.87;;;;;;;9.47;100.00;101658.91;2093743;28;20191;-69
2024/03/10 01:12:48;;;;;;;11.20;7.57;;;;;;;9.11;100.00;101600.16;2090479;28;20426;-69
2024/03/10 01:13:50;;;;;;;12.53;7.80;;;;;;;9.52;100.00;101658.50;2090009;28;20229;-69
2024/03/10 01:14:51;;;;;;;11.33;6.97;;;;;;;9.49;100.00;101665.63;2090406;28;20210;-69
2024/03/10 01:15:51;;;;;;;11.53;7.13;;;;;;;9.49;100.00;101657.34;2090539;28;20423;-69
2024/03/10 01:16:52;;;;;;;15.47;7.83;;;;;;;9.51;100.00;101660.50;2092159;28;20190;-69
2024/03/10 01:17:53;;;;;;;13.27;8.03;;;;;;;9.55;100.00;101666.03;2092167;28;20219;-69
2024/03/10 01:18:53;;;;;;;15.73;8.03;;;;;;;9.56;100.00;101662.06;2090124;28;20231;-69
2024/03/10 01:19:54;;;;;;;14.27;7.60;;;;;;;9.57;100.00;101664.44;2093357;28;20179;-69
2024/03/10 01:20:54;;;;;;;11.90;7.67;;;;;;;9.59;100.00;101664.81;2093125;28;20206;-69
2024/03/10 01:21:55;;;;;;;12.67;7.83;;;;;;;9.60;100.00;101662.84;2092345;28;20222;-69
2024/03/10 01:22:57;;;;;;;13.63;8.37;;;;;;;9.61;100.00;101658.88;2090369;28;20190;-69
2024/03/10 01:23:57;;;;;;;15.57;7.83;;;;;;;9.61;100.00;101653.34;2082184;28;20199;-69
2024/03/10 01:24:58;;;;;;;14.03;7.73;;;;;;;9.48;100.00;101646.69;2096270;28;20426;-69
2024/03/10 01:26:00;;;;;;;12.90;8.17;;;;;;;9.52;100.00;101656.53;2093370;28;20240;-69
2024/03/10 01:27:02;;;;;;;16.03;8.30;;;;;;;9.51;100.00;101645.88;2096274;28;20661;-69
2024/03/10 01:28:03;;;;;;;13.50;8.13;;;;;;;9.49;100.00;101648.25;2094041;28;20478;-69
2024/03/10 01:29:04;;;;;;;12.53;7.60;;;;;;;9.46;100.00;101652.63;2095115;28;20430;-69
2024/03/10 01:30:05;;;;;;;14.10;8.40;;;;;;;9.46;100.00;101647.09;2093523;28;20422;-69
2024/03/10 01:31:09;;;;;;;11.93;7.50;;;;;;;9.47;100.00;101648.66;2093693;28;20275;-69
2024/03/10 01:32:10;;;;;;;13.70;7.63;;;;;;;9.51;100.00;101641.13;2094216;28;20950;-69
2024/03/10 01:33:10;;;;;;;13.37;8.03;;;;;;;9.46;100.00;101652.63;2092151;28;20842;-69
2024/03/10 01:34:11;;;;;;;11.47;7.23;;;;;;;9.44;100.00;101645.91;2094962;28;20187;-69
2024/03/10 01:35:11;;;;;;;14.67;7.70;;;;;;;8.56;100.00;101510.63;2092172;28;20184;-69
2024/03/10 01:36:12;;;;;;;13.07;8.07;;;;;;;9.48;100.00;101650.22;2092347;28;20263;-69
2024/03/10 01:37:12;;;;;;;16.57;8.10;;;;;;;9.48;100.00;101643.91;2094052;28;20184;-69
2024/03/10 01:38:13;;;;;;;11.80;7.60;;;;;;;9.46;100.00;101637.97;2093762;28;20207;-69
2024/03/10 01:39:14;;;;;;;12.00;7.83;;;;;;;9.46;100.00;101647.09;2094599;28;20187;-69
2024/03/10 01:40:14;;;;;;;12.13;7.77;;;;;;;8.93;100.00;101560.72;2094205;28;20438;-69
2024/03/10 01:41:15;;;;;;;13.17;7.50;;;;;;;9.56;100.00;101651.00;2090073;28;20190;-69
2024/03/10 01:42:15;;;;;;;12.50;8.00;;;;;;;9.10;100.00;101570.13;2092171;28;20193;-69
2024/03/10 01:43:16;;;;;;;16.30;8.17;;;;;;;9.55;100.00;101641.91;2092467;28;20194;-69
2024/03/10 01:44:17;;;;;;;11.07;7.30;;;;;;;9.38;100.00;101611.53;2086983;28;20188;-69
2024/03/10 01:45:17;;;;;;;13.33;8.57;;;;;;;9.60;100.00;101649.00;2095562;28;20194;-69
2024/03/10 01:46:21;;;;;;;11.63;7.40;;;;;;;9.40;100.00;101642.34;2094947;28;20246;-69
2024/03/10 01:47:22;;;;;;;14.60;7.50;;;;;;;9.59;100.00;101647.44;2096303;28;20589;-69
2024/03/10 01:48:22;;;;;;;12.47;7.80;;;;;;;8.99;100.00;101550.81;2094239;28;20440;-69
2024/03/10 01:49:23;;;;;;;14.00;7.90;;;;;;;9.59;100.00;101658.50;2095418;28;20184;-69
2024/03/10 01:50:23;;;;;;;16.00;7.10;;;;;;;9.56;100.00;101646.25;2095592;28;20187;-69
2024/03/10 01:51:24;;;;;;;13.40;7.67;;;;;;;9.60;100.00;101658.13;2096131;28;20211;-69
2024/03/10 01:52:25;;;;;;;13.13;7.30;;;;;;;9.56;100.00;101651.00;2094978;28;20189;-69
2024/03/10 01:53:30;;;;;;;13.73;8.37;;;;;;;9.44;100.00;101635.59;2093845;28;20299;-69
2024/03/10 01:54:34;;;;;;;14.27;7.40;;;;;;;9.56;100.00;101649.03;2097678;28;20429;-69
2024/03/10 01:55:37;;;;;;;13.70;7.73;;;;;;;9.59;100.00;101661.28;2097802;28;20805;-69
2024/03/10 01:56:40;;;;;;;10.70;7.23;;;;;;;9.14;100.00;101588.31;2091983;28;20436;-69
2024/03/10 01:57:42;;;;;;;12.87;7.83;;;;;;;9.40;100.00;101632.09;2093659;28;21056;-69
2024/03/10 01:58:46;;;;;;;12.27;7.63;;;;;;;9.52;100.00;101655.75;2095983;28;20536;-69
2024/03/10 01:59:48;;;;;;;15.13;7.53;;;;;;;8.31;100.00;101471.19;2097063;28;20882;-69
2024/03/10 02:00:51;;;;;;;14.47;7.73;;;;;;;9.47;100.00;101650.63;2096427;28;20429;-69
2024/03/10 02:01:53;;;;;;;13.17;8.17;;;;;;;9.48;100.00;101652.22;2093600;28;20941;-69
2024/03/10 02:02:55;;;;;;;11.63;7.83;;;;;;;8.77;100.00;101545.72;2094673;28;20452;-69
2024/03/10 02:03:55;;;;;;;13.07;8.20;;;;;;;9.45;100.00;101644.72;2098798;28;20933;-69
2024/03/10 02:04:57;;;;;;;12.83;7.33;;;;;;;9.40;100.00;101636.81;2093537;28;20428;-69
2024/03/10 02:05:58;;;;;;;13.80;7.67;;;;;;;9.34;100.00;101632.88;2093754;28;20212;-69
2024/03/10 02:06:59;;;;;;;12.53;7.77;;;;;;;9.41;100.00;101643.91;2094009;28;20421;-69
2024/03/10 02:07:59;;;;;;;11.50;7.73;;;;;;;9.27;100.00;101632.91;2093856;28;20209;-69
2024/03/10 02:09:00;;;;;;;13.70;8.60;;;;;;;9.28;100.00;101632.50;2087828;28;20783;-69
2024/03/10 02:10:02;;;;;;;11.97;7.47;;;;;;;9.32;100.00;101638.03;2094321;28;20207;-69
2024/03/10 02:11:06;;;;;;;12.90;7.73;;;;;;;9.07;100.00;101598.59;2094824;28;20188;-69
2024/03/10 02:12:06;;;;;;;11.23;7.63;;;;;;;9.34;100.00;101644.75;2095654;28;20414;-69
2024/03/10 02:13:07;;;;;;;13.53;7.37;;;;;;;9.34;100.00;101638.41;2095894;28;20461;-69
2024/03/10 02:14:08;;;;;;;13.23;8.40;;;;;;;9.35;100.00;101640.78;2093483;28;20199;-69
2024/03/10 02:15:09;;;;;;;14.10;7.77;;;;;;;9.29;100.00;101627.75;2094279;28;20687;-69
2024/03/10 02:16:09;;;;;;;15.30;8.53;;;;;;;9.35;100.00;101635.25;2093852;28;20886;-69
2024/03/10 02:17:14;;;;;;;15.30;8.17;;;;;;;9.32;100.00;101640.81;2093491;28;20238;-69
2024/03/10 02:18:14;;;;;;;14.93;8.90;;;;;;;9.32;100.00;101641.59;2093265;28;20226;-69
2024/03/10 02:19:18;;;;;;;15.73;8.57;;;;;;;9.33;100.00;101634.09;2093633;28;20429;-69
2024/03/10 02:20:21;;;;;;;13.13;7.80;;;;;;;9.32;100.00;101636.06;2090240;28;20249;-69
2024/03/10 02:21:22;;;;;;;12.50;8.60;;;;;;;9.15;100.00;101625.81;2096548;28;20433;-69
2024/03/10 02:22:28;;;;;;;15.03;8.07;;;;;;;9.31;100.00;101636.44;2094074;28;20520;-69
2024/03/10 02:23:40;;;;;;;13.23;7.53;;;;;;;9.29;100.00;101636.06;2094611;28;20187;-69
2024/03/10 02:24:43;;;;;;;13.90;8.83;;;;;;;9.26;100.00;101629.34;2092546;28;20418;-69
2024/03/10 02:25:45;;;;;;;14.50;8.80;;;;;;;9.30;100.00;101646.75;2094213;28;20430;-69
2024/03/10 02:26:47;;;;;;;13.00;8.83;;;;;;;8.83;100.00;101582.84;2095085;28;20457;-69
2024/03/10 02:27:50;;;;;;;12.30;8.50;;;;;;;9.28;100.00;101640.78;2096134;28;20832;-69
2024/03/10 02:29:14;;;;;;;14.17;8.50;;;;;;;9.31;100.00;101637.25;2096553;28;20424;-69
2024/03/10 02:47:16;;;;;;;18.80;10.87;;;;;;;8.54;100.00;101653.91;2098909;28;20193;-69
2024/03/10 02:48:17;;;;;;;12.73;8.27;;;;;;;8.56;100.00;101659.81;2094142;28;21010;-69
2024/03/10 02:49:18;;;;;;;14.93;9.00;;;;;;;8.52;100.00;101642.47;2091975;28;20877;-69
2024/03/10 02:50:20;;;;;;;14.23;9.30;;;;;;;8.04;100.00;101569.38;2096114;28;20198;-69
2024/03/10 02:51:21;;;;;;;15.45;9.35;;;;;;;8.29;100.00;101603.38;2093244;28;20192;-69
2024/03/10 02:52:22;;;;;;;17.20;9.40;;;;;;;8.29;100.00;101608.09;2097444;28;20274;-69
2024/03/10 02:53:22;;;;;;;19.73;9.53;;;;;;;8.56;100.00;101654.28;2093402;28;20667;-69
2024/03/10 02:54:22;;;;;;;15.73;8.93;;;;;;;8.35;100.00;101634.16;2094709;28;20197;-69
2024/03/10 02:55:23;;;;;;;17.67;9.47;;;;;;;8.48;100.00;101649.16;2091617;28;20267;-69
2024/03/10 02:56:23;;;;;;;16.37;9.90;;;;;;;8.48;100.00;101647.19;2097085;28;20202;-69
2024/03/10 02:57:24;;;;;;;14.63;9.20;;;;;;;8.42;100.00;101653.50;2099141;28;20190;-69
2024/03/10 02:58:24;;;;;;;17.80;9.40;;;;;;;8.38;100.00;101647.97;2092050;28;20317;-69
2024/03/10 02:59:25;;;;;;;14.07;9.07;;;;;;;8.41;100.00;101658.22;2094503;28;20190;-69
2024/03/10 03:00:25;;;;;;;13.17;8.00;;;;;;;8.43;100.00;101655.06;2097597;28;20187;-69
2024/03/10 03:01:26;;;;;;;16.13;9.70;;;;;;;8.35;100.00;101645.97;2097826;28;20199;-69
2024/03/10 03:02:29;;;;;;;18.97;10.30;;;;;;;7.95;100.00;101617.88;2097142;28;20214;-69
2024/03/10 03:03:29;;;;;;;17.27;9.52;;;;;;;8.31;100.00;101658.22;2094678;28;20961;-69
2024/03/10 03:04:30;;;;;;;18.83;9.40;;;;;;;8.37;100.00;101654.69;2093437;28;20559;-69
2024/03/10 03:05:31;;;;;;;15.57;9.07;;;;;;;8.43;100.00;101652.31;2095897;28;20256;-69
2024/03/10 03:06:32;;;;;;;12.67;8.10;;;;;;;8.41;100.00;101649.16;2091935;28;20486;-69
2024/03/10 03:07:33;;;;;;;14.40;9.13;;;;;;;8.50;100.00;101655.09;2091897;28;20228;-69
2024/03/10 03:08:33;;;;;;;15.13;9.10;;;;;;;8.51;100.00;101654.69;2094400;28;20188;-69
2024/03/10 03:09:35;;;;;;;14.57;8.90;;;;;;;8.49;100.00;101661.78;2094663;28;20418;-69
2024/03/10 03:10:35;;;;;;;15.90;9.00;;;;;;;8.47;100.00;101658.63;2090470;28;20251;-69
2024/03/10 03:11:36;;;;;;;14.10;8.77;;;;;;;8.42;100.00;101659.03;2094822;28;20421;-69
2024/03/10 03:12:36;;;;;;;16.33;8.97;;;;;;;8.44;100.00;101660.22;2094316;28;20187;-69
2024/03/10 03:13:37;;;;;;;17.27;9.53;;;;;;;8.42;100.00;101659.81;2093043;28;20278;-69
2024/03/10 03:14:38;;;;;;;17.37;9.30;;;;;;;7.55;100.00;101524.34;2094450;28;20184;-69
2024/03/10 03:15:38;;;;;;;15.33;9.13;;;;;;;8.30;100.00;101651.91;2097843;28;20186;-69
2024/03/10 03:16:40;;;;;;;14.93;8.80;;;;;;;8.24;100.00;101650.69;2095301;28;20643;-69
2024/03/10 03:17:41;;;;;;;15.40;9.95;;;;;;;7.24;100.00;101497.47;2090470;28;20644;-69
2024/03/10 03:18:45;;;;;;;15.10;8.30;;;;;;;8.22;100.00;101647.56;2091974;28;20177;-69
2024/03/10 03:19:45;;;;;;;13.27;7.87;;;;;;;8.18;100.00;101645.91;2091878;28;20773;-69
2024/03/10 03:20:46;;;;;;;21.57;9.17;;;;;;;8.17;100.00;101641.59;2095582;28;20534;-69
2024/03/10 03:21:47;;;;;;;15.02;8.80;;;;;;;8.09;100.00;101640.00;2095381;28;20180;-69
2024/03/10 03:22:48;;;;;;;14.67;9.37;;;;;;;8.09;100.00;101648.28;2097850;28;20267;-69
2024/03/10 03:23:49;;;;;;;14.52;8.45;;;;;;;8.09;100.00;101651.81;2096813;28;20277;-69
2024/03/10 03:24:50;;;;;;;12.00;8.30;;;;;;;8.11;100.00;101651.44;2096057;28;20205;-69
2024/03/10 03:25:50;;;;;;;14.17;8.70;;;;;;;8.14;100.00;101653.41;2098454;28;20203;-69
2024/03/10 03:26:53;;;;;;;16.50;9.00;;;;;;;8.19;100.00;101653.81;2092177;28;20219;-69
2024/03/10 03:27:54;;;;;;;15.05;8.85;;;;;;;8.19;100.00;101653.81;2093661;28;20204;-67
2024/03/10 03:28:54;;;;;;;14.50;9.03;;;;;;;8.24;100.00;101644.38;2094831;28;20250;-67
2024/03/10 03:29:55;;;;;;;16.10;9.53;;;;;;;8.30;100.00;101657.41;2094068;28;20487;-67
2024/03/10 03:30:56;;;;;;;16.33;9.13;;;;;;;8.25;100.00;101652.28;2091757;28;20309;-67
2024/03/10 03:31:56;;;;;;;14.23;8.87;;;;;;;8.29;100.00;101646.75;2095755;28;20274;-67
2024/03/10 03:32:57;;;;;;;18.70;8.50;;;;;;;7.30;100.00;101493.16;2095287;28;20185;-68
2024/03/10 03:33:58;;;;;;;15.97;8.63;;;;;;;8.28;100.00;101647.94;2094487;28;20278;-68
2024/03/10 03:34:58;;;;;;;13.83;8.33;;;;;;;8.22;100.00;101647.56;2094184;28;20178;-68
2024/03/10 03:36:00;;;;;;;15.03;9.00;;;;;;;8.22;100.00;101647.56;2090547;28;20435;-68
2024/03/10 03:37:01;;;;;;;18.85;9.38;;;;;;;8.21;100.00;101643.19;2096029;28;20592;-69
2024/03/10 03:38:03;;;;;;;14.37;8.47;;;;;;;7.36;100.00;101508.94;2095050;28;20196;-69
2024/03/10 03:39:06;;;;;;;13.90;8.70;;;;;;;8.18;100.00;101646.72;2093021;28;20234;-69
2024/03/10 03:40:07;;;;;;;16.60;9.00;;;;;;;8.12;100.00;101644.72;2095762;28;20182;-69
2024/03/10 03:41:08;;;;;;;13.80;8.65;;;;;;;8.08;100.00;101652.19;2092194;28;20439;-69
2024/03/10 03:42:08;;;;;;;16.60;9.53;;;;;;;8.02;100.00;101662.84;2098595;28;20268;-69
2024/03/10 03:43:10;;;;;;;16.70;8.53;;;;;;;8.02;100.00;101639.97;2096942;28;20187;-69
2024/03/10 03:44:11;;;;;;;14.03;9.30;;;;;;;7.97;100.00;101643.91;2093845;28;20201;-69
2024/03/10 03:45:12;;;;;;;15.80;9.47;;;;;;;7.97;100.00;101641.16;2092989;28;20412;-69
2024/03/10 03:46:12;;;;;;;19.67;9.60;;;;;;;7.99;100.00;101644.28;2096704;28;20207;-69
2024/03/10 03:47:13;;;;;;;14.03;8.60;;;;;;;7.99;100.00;101646.28;2093159;28;20210;-69
2024/03/10 03:48:13;;;;;;;16.20;9.83;;;;;;;7.98;100.00;101639.16;2093360;28;20269;-69
2024/03/10 03:49:14;;;;;;;16.20;8.97;;;;;;;7.98;100.00;101642.72;2083543;28;20250;-68
2024/03/10 03:50:15;;;;;;;14.90;9.07;;;;;;;7.98;100.00;101645.50;2092827;28;20246;-69
2024/03/10 03:51:16;;;;;;;15.95;9.73;;;;;;;7.98;100.00;101641.91;2096864;28;20615;-69
2024/03/10 03:52:18;;;;;;;16.95;9.48;;;;;;;7.93;100.00;101643.09;2092353;28;20643;-68
2024/03/10 03:53:19;;;;;;;16.25;9.27;;;;;;;7.93;100.00;101637.59;2092501;28;20230;-69
2024/03/10 03:54:20;;;;;;;16.30;8.97;;;;;;;7.96;100.00;101647.84;2094279;28;20185;-69
2024/03/10 03:55:21;;;;;;;17.03;9.73;;;;;;;7.98;100.00;101639.97;2096294;28;20430;-68
2024/03/10 03:56:21;;;;;;;16.83;9.40;;;;;;;8.00;100.00;101650.63;2092128;28;20236;-69
2024/03/10 03:57:25;;;;;;;16.27;8.83;;;;;;;7.98;100.00;101647.44;2098365;28;20218;-69
2024/03/10 03:58:25;;;;;;;18.02;9.95;;;;;;;8.01;100.00;101647.47;2093644;28;20736;-69
2024/03/10 03:59:26;;;;;;;16.37;9.23;;;;;;;8.01;100.00;101653.00;2094425;28;20617;-69
2024/03/10 04:00:28;;;;;;;16.60;9.27;;;;;;;7.95;100.00;101651.78;2092890;28;20207;-69
2024/03/10 04:01:29;;;;;;;18.52;9.43;;;;;;;7.94;100.00;101649.44;2091867;28;20214;-69
2024/03/10 04:02:29;;;;;;;16.73;9.70;;;;;;;8.00;100.00;101642.34;2092287;28;20220;-68
2024/03/10 04:03:30;;;;;;;15.93;9.30;;;;;;;7.32;100.00;101534.91;2097133;28;20666;-69
2024/03/10 04:04:31;;;;;;;17.97;10.13;;;;;;;7.97;100.00;101652.19;2095973;28;20220;-69
2024/03/10 04:05:32;;;;;;;16.93;9.33;;;;;;;8.00;100.00;101656.13;2095231;28;20566;-69
2024/03/10 04:06:33;;;;;;;18.42;10.30;;;;;;;7.70;100.00;101603.97;2093057;28;20193;-69
2024/03/10 04:07:34;;;;;;;16.57;9.77;;;;;;;7.98;100.00;101650.19;2092169;28;20196;-69
2024/03/10 04:08:34;;;;;;;14.97;9.30;;;;;;;7.93;100.00;101654.13;2091862;28;20182;-69
2024/03/10 04:09:35;;;;;;;18.27;9.77;;;;;;;7.86;100.00;101656.88;2095801;28;20183;-69
2024/03/10 04:10:35;;;;;;;15.93;8.93;;;;;;;7.87;100.00;101654.91;2093712;28;20222;-69
2024/03/10 04:11:36;;;;;;;17.23;9.37;;;;;;;7.05;100.00;101528.88;2092875;28;20185;-68
2024/03/10 04:12:37;;;;;;;16.23;9.30;;;;;;;7.89;100.00;101661.63;2091917;28;20192;-69
2024/03/10 04:13:37;;;;;;;17.03;9.37;;;;;;;7.87;100.00;101661.22;2095441;28;20725;-69
2024/03/10 04:14:38;;;;;;;17.87;9.97;;;;;;;7.91;100.00;101659.28;2093521;28;20252;-70
2024/03/10 04:15:38;;;;;;;17.73;9.93;;;;;;;7.86;100.00;101664.38;2092960;28;20259;-69
2024/03/10 04:16:39;;;;;;;15.77;9.40;;;;;;;7.85;100.00;101668.31;2090695;28;20184;-68
2024/03/10 04:17:40;;;;;;;15.60;9.67;;;;;;;7.89;100.00;101669.13;2090716;28;20280;-69
2024/03/10 04:18:40;;;;;;;18.13;10.03;;;;;;;7.96;100.00;101669.13;2096384;28;20744;-69
2024/03/10 04:19:41;;;;;;;18.13;10.37;;;;;;;8.01;100.00;101669.56;2094105;28;20186;-69
2024/03/10 04:20:45;;;;;;;15.27;9.27;;;;;;;8.08;100.00;101664.06;2092732;28;20284;-69
2024/03/10 04:21:46;;;;;;;17.00;9.37;;;;;;;8.09;100.00;101660.09;2098113;28;20186;-69
2024/03/10 04:22:48;;;;;;;17.47;9.40;;;;;;;8.19;100.00;101669.59;2093683;28;20447;-69
2024/03/10 04:23:48;;;;;;;18.63;9.63;;;;;;;8.21;100.00;101670.81;2091099;28;20519;-69
2024/03/10 04:24:49;;;;;;;18.80;10.53;;;;;;;8.24;100.00;101677.50;2095764;28;20428;-68
2024/03/10 04:25:49;;;;;;;17.37;10.80;;;;;;;7.79;100.00;101601.66;2091777;28;20238;-69
2024/03/10 04:26:50;;;;;;;17.50;10.47;;;;;;;8.21;100.00;101675.56;2093273;28;20271;-69
2024/03/10 04:27:52;;;;;;;18.17;10.13;;;;;;;8.16;100.00;101651.81;2094619;28;20397;-69
2024/03/10 04:28:53;;;;;;;20.10;9.93;;;;;;;8.30;100.00;101665.69;2093190;28;20191;-69
2024/03/10 04:29:55;;;;;;;15.03;9.67;;;;;;;8.35;100.00;101672.84;2095045;28;20582;-69
2024/03/10 04:30:55;;;;;;;17.93;10.57;;;;;;;8.37;100.00;101670.44;2093421;28;20423;-68
2024/03/10 04:31:55;;;;;;;17.60;9.77;;;;;;;8.40;100.00;101675.22;2095540;28;20505;-69
2024/03/10 04:32:56;;;;;;;17.70;10.23;;;;;;;8.45;100.00;101670.06;2095132;28;20190;-69
2024/03/10 04:33:57;;;;;;;17.67;9.93;;;;;;;8.47;100.00;101672.44;2092188;28;20198;-69
2024/03/10 04:34:57;;;;;;;17.80;9.90;;;;;;;7.63;100.00;101539.75;2092506;28;20649;-69
2024/03/10 04:35:58;;;;;;;16.23;9.33;;;;;;;8.45;100.00;101677.59;2096412;28;20184;-69
2024/03/10 04:36:59;;;;;;;13.07;8.57;;;;;;;8.38;100.00;101677.56;2094988;28;20183;-69
2024/03/10 04:37:59;;;;;;;18.20;9.93;;;;;;;8.45;100.00;101680.34;2093661;28;20191;-69
2024/03/10 04:39:00;;;;;;;17.13;8.97;;;;;;;8.46;100.00;101668.88;2091722;28;20233;-69
2024/03/10 04:40:01;;;;;;;16.03;9.70;;;;;;;8.33;100.00;101664.94;2091400;28;20278;-69
2024/03/10 04:41:01;;;;;;;17.47;9.83;;;;;;;8.31;100.00;101672.81;2094657;28;20634;-69
2024/03/10 04:42:02;;;;;;;16.67;9.53;;;;;;;8.32;100.00;101679.13;2093778;28;20205;-70
2024/03/10 04:43:03;;;;;;;16.37;9.17;;;;;;;8.31;100.00;101678.31;2091320;28;20273;-69
2024/03/10 04:44:04;;;;;;;16.60;9.53;;;;;;;8.28;100.00;101683.84;2090398;28;20437;-69
2024/03/10 04:45:11;;;;;;;18.30;10.47;;;;;;;8.26;100.00;101680.69;2092169;28;20176;-69
2024/03/10 04:46:11;;;;;;;16.23;9.43;;;;;;;8.27;100.00;101682.28;2095663;28;20831;-70
2024/03/10 04:47:14;;;;;;;18.30;10.13;;;;;;;8.30;100.00;101675.97;2092570;28;20512;-69
2024/03/10 04:48:15;;;;;;;18.30;9.43;;;;;;;8.28;100.00;101678.31;2092929;28;20197;-69
2024/03/10 04:49:17;;;;;;;17.23;9.87;;;;;;;8.28;100.00;101683.84;2094955;28;20512;-69
2024/03/10 04:50:18;;;;;;;17.77;9.65;;;;;;;8.19;100.00;101699.97;2096346;28;20858;-69
2024/03/10 04:51:19;;;;;;;15.93;8.87;;;;;;;8.04;100.00;101659.72;2094318;28;20183;-70
2024/03/10 04:52:19;;;;;;;15.00;9.63;;;;;;;8.15;100.00;101680.63;2092755;28;20192;-69
2024/03/10 04:53:20;;;;;;;16.97;8.80;;;;;;;8.00;100.00;101678.22;2093149;28;20191;-69
2024/03/10 04:54:21;;;;;;;18.83;9.67;;;;;;;8.04;100.00;101681.78;2095332;28;20238;-69
2024/03/10 04:55:21;;;;;;;16.73;9.57;;;;;;;8.09;100.00;101686.94;2093039;28;20194;-69
2024/03/10 04:56:22;;;;;;;18.50;9.33;;;;;;;8.18;100.00;101685.38;2096630;28;20183;-69
2024/03/10 04:57:24;;;;;;;15.17;9.13;;;;;;;8.21;100.00;101687.38;2095865;28;20187;-69
2024/03/10 04:58:26;;;;;;;18.00;9.98;;;;;;;8.26;100.00;101687.00;2097127;28;20206;-70